sensor_id;sensor_type;location;lat;lon;timestamp;P1;durP1;ratioP1;P2;durP2;ratioP2
41966;SDS011;27656;53.068;8.818;2023-02-22T00:01:11;48.10;;;22.10;;
41966;SDS011;27656;53.068;8.818;2023-02-22T00:04:01;48.10;;;23.57;;
41966;SDS011;27656;53.068;8.818;2023-02-22T00:06:28;45.80;;;21.70;;
41966;SDS011;27656;53.068;8.818;2023-02-22T00:08:56;40.80;;;20.67;;
41966;SDS011;27656;53.068;8.818;2023-02-22T00:11:23;44.80;;;22.03;;
41966;SDS011;27656;53.068;8.818;2023-02-22T00:13:50;43.97;;;22.20;;
41966;SDS011;27656;53.068;8.818;2023-02-22T00:16:18;45.90;;;21.73;;
41966;SDS011;27656;53.068;8.818;2023-02-22T00:18:46;48.20;;;22.03;;
41966;SDS011;27656;53.068;8.818;2023-02-22T00:21:13;45.93;;;22.00;;
41966;SDS011;27656;53.068;8.818;2023-02-22T00:23:43;50.40;;;21.40;;
41966;SDS011;27656;53.068;8.818;2023-02-22T00:26:15;42.73;;;20.40;;
41966;SDS011;27656;53.068;8.818;2023-02-22T00:28:46;43.93;;;20.90;;
41966;SDS011;27656;53.068;8.818;2023-02-22T00:31:14;47.30;;;22.10;;
41966;SDS011;27656;53.068;8.818;2023-02-22T00:33:41;49.40;;;20.80;;
41966;SDS011;27656;53.068;8.818;2023-02-22T00:36:09;41.43;;;20.33;;
41966;SDS011;27656;53.068;8.818;2023-02-22T00:38:36;43.60;;;20.33;;
41966;SDS011;27656;53.068;8.818;2023-02-22T00:41:03;45.60;;;21.77;;
41966;SDS011;27656;53.068;8.818;2023-02-22T00:43:29;47.90;;;22.53;;
41966;SDS011;27656;53.068;8.818;2023-02-22T00:45:56;45.93;;;21.70;;
41966;SDS011;27656;53.068;8.818;2023-02-22T00:48:23;47.93;;;21.47;;
41966;SDS011;27656;53.068;8.818;2023-02-22T00:50:49;44.90;;;21.07;;
41966;SDS011;27656;53.068;8.818;2023-02-22T00:53:21;42.83;;;20.20;;
41966;SDS011;27656;53.068;8.818;2023-02-22T00:55:48;46.70;;;21.90;;
41966;SDS011;27656;53.068;8.818;2023-02-22T00:58:15;45.37;;;20.83;;
41966;SDS011;27656;53.068;8.818;2023-02-22T01:00:42;47.13;;;22.77;;
41966;SDS011;27656;53.068;8.818;2023-02-22T01:03:09;46.60;;;21.90;;
41966;SDS011;27656;53.068;8.818;2023-02-22T01:05:38;47.20;;;22.33;;
41966;SDS011;27656;53.068;8.818;2023-02-22T01:08:05;45.97;;;20.27;;
41966;SDS011;27656;53.068;8.818;2023-02-22T01:10:33;47.67;;;22.17;;
41966;SDS011;27656;53.068;8.818;2023-02-22T01:13:00;41.07;;;21.00;;
41966;SDS011;27656;53.068;8.818;2023-02-22T01:15:29;41.53;;;20.00;;
41966;SDS011;27656;53.068;8.818;2023-02-22T01:17:56;40.50;;;20.47;;
41966;SDS011;27656;53.068;8.818;2023-02-22T01:20:23;42.70;;;20.77;;
41966;SDS011;27656;53.068;8.818;2023-02-22T01:22:52;38.93;;;19.97;;
41966;SDS011;27656;53.068;8.818;2023-02-22T01:25:21;41.20;;;19.57;;
41966;SDS011;27656;53.068;8.818;2023-02-22T01:27:49;43.43;;;20.57;;
41966;SDS011;27656;53.068;8.818;2023-02-22T01:30:21;42.67;;;19.60;;
41966;SDS011;27656;53.068;8.818;2023-02-22T01:32:50;37.43;;;18.67;;
41966;SDS011;27656;53.068;8.818;2023-02-22T01:35:17;39.70;;;20.27;;
41966;SDS011;27656;53.068;8.818;2023-02-22T01:37:46;39.83;;;19.70;;
41966;SDS011;27656;53.068;8.818;2023-02-22T01:40:17;40.73;;;18.97;;
41966;SDS011;27656;53.068;8.818;2023-02-22T01:42:52;38.37;;;19.77;;
41966;SDS011;27656;53.068;8.818;2023-02-22T01:47:55;36.67;;;18.43;;
41966;SDS011;27656;53.068;8.818;2023-02-22T01:50:23;38.70;;;18.43;;
41966;SDS011;27656;53.068;8.818;2023-02-22T01:52:50;35.97;;;19.47;;
41966;SDS011;27656;53.068;8.818;2023-02-22T01:55:16;39.60;;;19.57;;
41966;SDS011;27656;53.068;8.818;2023-02-22T01:57:43;40.70;;;19.40;;
41966;SDS011;27656;53.068;8.818;2023-02-22T02:00:12;43.97;;;19.87;;
41966;SDS011;27656;53.068;8.818;2023-02-22T02:02:43;37.77;;;19.07;;
41966;SDS011;27656;53.068;8.818;2023-02-22T02:05:11;41.07;;;19.20;;
41966;SDS011;27656;53.068;8.818;2023-02-22T02:07:38;40.13;;;20.90;;
41966;SDS011;27656;53.068;8.818;2023-02-22T02:10:10;39.87;;;18.97;;
41966;SDS011;27656;53.068;8.818;2023-02-22T02:12:43;38.27;;;20.00;;
41966;SDS011;27656;53.068;8.818;2023-02-22T02:15:15;42.27;;;20.33;;
41966;SDS011;27656;53.068;8.818;2023-02-22T02:17:41;38.73;;;19.77;;
41966;SDS011;27656;53.068;8.818;2023-02-22T02:25:57;34.97;;;18.30;;
41966;SDS011;27656;53.068;8.818;2023-02-22T02:32:09;39.87;;;19.17;;
41966;SDS011;27656;53.068;8.818;2023-02-22T02:37:35;38.57;;;19.10;;
41966;SDS011;27656;53.068;8.818;2023-02-22T02:48:37;36.37;;;19.43;;
41966;SDS011;27656;53.068;8.818;2023-02-22T02:51:07;37.43;;;19.57;;
41966;SDS011;27656;53.068;8.818;2023-02-22T02:53:35;35.43;;;19.23;;
41966;SDS011;27656;53.068;8.818;2023-02-22T02:56:04;42.53;;;20.20;;
41966;SDS011;27656;53.068;8.818;2023-02-22T02:58:31;41.00;;;19.67;;
41966;SDS011;27656;53.068;8.818;2023-02-22T03:00:58;37.63;;;19.70;;
41966;SDS011;27656;53.068;8.818;2023-02-22T03:06:31;37.63;;;17.60;;
41966;SDS011;27656;53.068;8.818;2023-02-22T03:09:10;38.83;;;19.50;;
41966;SDS011;27656;53.068;8.818;2023-02-22T03:14:38;40.97;;;20.20;;
41966;SDS011;27656;53.068;8.818;2023-02-22T03:17:15;40.30;;;20.67;;
41966;SDS011;27656;53.068;8.818;2023-02-22T03:19:49;40.40;;;20.47;;
41966;SDS011;27656;53.068;8.818;2023-02-22T03:22:24;39.77;;;20.10;;
41966;SDS011;27656;53.068;8.818;2023-02-22T03:24:57;41.23;;;20.87;;
41966;SDS011;27656;53.068;8.818;2023-02-22T03:27:31;42.40;;;19.87;;
41966;SDS011;27656;53.068;8.818;2023-02-22T03:30:10;38.73;;;21.20;;
41966;SDS011;27656;53.068;8.818;2023-02-22T03:32:50;41.70;;;21.97;;
41966;SDS011;27656;53.068;8.818;2023-02-22T03:35:19;39.13;;;21.37;;
41966;SDS011;27656;53.068;8.818;2023-02-22T03:37:49;38.50;;;19.90;;
41966;SDS011;27656;53.068;8.818;2023-02-22T03:40:32;44.73;;;21.77;;
41966;SDS011;27656;53.068;8.818;2023-02-22T03:43:04;42.93;;;22.47;;
41966;SDS011;27656;53.068;8.818;2023-02-22T03:45:32;42.40;;;23.13;;
41966;SDS011;27656;53.068;8.818;2023-02-22T03:48:02;47.83;;;23.37;;
41966;SDS011;27656;53.068;8.818;2023-02-22T03:50:33;46.40;;;23.53;;
41966;SDS011;27656;53.068;8.818;2023-02-22T03:53:01;45.33;;;22.20;;
41966;SDS011;27656;53.068;8.818;2023-02-22T03:55:28;45.53;;;23.53;;
41966;SDS011;27656;53.068;8.818;2023-02-22T03:57:56;46.90;;;24.53;;
41966;SDS011;27656;53.068;8.818;2023-02-22T04:00:25;48.80;;;23.40;;
41966;SDS011;27656;53.068;8.818;2023-02-22T04:02:53;52.43;;;24.47;;
41966;SDS011;27656;53.068;8.818;2023-02-22T04:05:20;48.83;;;23.77;;
41966;SDS011;27656;53.068;8.818;2023-02-22T04:07:47;49.63;;;24.73;;
41966;SDS011;27656;53.068;8.818;2023-02-22T04:10:14;48.57;;;24.37;;
41966;SDS011;27656;53.068;8.818;2023-02-22T04:12:41;49.43;;;23.73;;
41966;SDS011;27656;53.068;8.818;2023-02-22T04:15:08;54.93;;;25.97;;
41966;SDS011;27656;53.068;8.818;2023-02-22T04:17:36;53.40;;;25.83;;
41966;SDS011;27656;53.068;8.818;2023-02-22T04:20:03;58.17;;;25.90;;
41966;SDS011;27656;53.068;8.818;2023-02-22T04:22:31;56.53;;;26.73;;
41966;SDS011;27656;53.068;8.818;2023-02-22T04:24:57;57.80;;;26.73;;
41966;SDS011;27656;53.068;8.818;2023-02-22T04:27:24;49.67;;;23.23;;
41966;SDS011;27656;53.068;8.818;2023-02-22T04:29:50;47.00;;;22.50;;
41966;SDS011;27656;53.068;8.818;2023-02-22T04:32:17;54.23;;;25.17;;
41966;SDS011;27656;53.068;8.818;2023-02-22T04:34:43;59.83;;;25.87;;
41966;SDS011;27656;53.068;8.818;2023-02-22T04:37:10;53.83;;;24.87;;
41966;SDS011;27656;53.068;8.818;2023-02-22T04:39:37;56.73;;;26.03;;
41966;SDS011;27656;53.068;8.818;2023-02-22T04:42:03;62.13;;;27.17;;
41966;SDS011;27656;53.068;8.818;2023-02-22T04:44:30;55.37;;;25.57;;
41966;SDS011;27656;53.068;8.818;2023-02-22T04:46:57;58.17;;;25.93;;
41966;SDS011;27656;53.068;8.818;2023-02-22T04:49:23;60.57;;;25.80;;
41966;SDS011;27656;53.068;8.818;2023-02-22T04:51:50;55.30;;;23.37;;
41966;SDS011;27656;53.068;8.818;2023-02-22T04:54:16;55.17;;;26.77;;
41966;SDS011;27656;53.068;8.818;2023-02-22T04:56:43;47.33;;;23.63;;
41966;SDS011;27656;53.068;8.818;2023-02-22T04:59:10;57.53;;;25.93;;
41966;SDS011;27656;53.068;8.818;2023-02-22T05:01:37;50.93;;;24.37;;
41966;SDS011;27656;53.068;8.818;2023-02-22T05:04:04;51.27;;;23.53;;
41966;SDS011;27656;53.068;8.818;2023-02-22T05:06:31;48.47;;;22.67;;
41966;SDS011;27656;53.068;8.818;2023-02-22T05:08:58;51.97;;;23.33;;
41966;SDS011;27656;53.068;8.818;2023-02-22T05:11:24;54.63;;;24.17;;
41966;SDS011;27656;53.068;8.818;2023-02-22T05:13:51;47.63;;;23.70;;
41966;SDS011;27656;53.068;8.818;2023-02-22T05:16:18;48.10;;;22.87;;
41966;SDS011;27656;53.068;8.818;2023-02-22T05:18:44;57.20;;;25.50;;
41966;SDS011;27656;53.068;8.818;2023-02-22T05:21:11;52.47;;;23.80;;
41966;SDS011;27656;53.068;8.818;2023-02-22T05:23:38;46.67;;;22.60;;
41966;SDS011;27656;53.068;8.818;2023-02-22T05:26:05;48.90;;;23.90;;
41966;SDS011;27656;53.068;8.818;2023-02-22T05:28:31;52.83;;;24.60;;
41966;SDS011;27656;53.068;8.818;2023-02-22T05:30:58;48.47;;;22.13;;
41966;SDS011;27656;53.068;8.818;2023-02-22T05:33:24;48.17;;;21.97;;
41966;SDS011;27656;53.068;8.818;2023-02-22T05:35:51;46.47;;;21.00;;
41966;SDS011;27656;53.068;8.818;2023-02-22T05:38:17;53.77;;;22.60;;
41966;SDS011;27656;53.068;8.818;2023-02-22T05:40:44;53.13;;;22.53;;
41966;SDS011;27656;53.068;8.818;2023-02-22T05:43:10;47.77;;;21.30;;
41966;SDS011;27656;53.068;8.818;2023-02-22T05:45:37;43.53;;;22.50;;
41966;SDS011;27656;53.068;8.818;2023-02-22T05:48:03;46.17;;;21.37;;
41966;SDS011;27656;53.068;8.818;2023-02-22T05:50:30;45.90;;;21.47;;
41966;SDS011;27656;53.068;8.818;2023-02-22T05:52:58;43.97;;;20.87;;
41966;SDS011;27656;53.068;8.818;2023-02-22T05:55:25;39.03;;;19.73;;
41966;SDS011;27656;53.068;8.818;2023-02-22T05:57:51;41.13;;;19.40;;
41966;SDS011;27656;53.068;8.818;2023-02-22T06:00:19;42.97;;;20.63;;
41966;SDS011;27656;53.068;8.818;2023-02-22T06:02:54;45.17;;;20.13;;
41966;SDS011;27656;53.068;8.818;2023-02-22T06:05:24;46.00;;;20.37;;
41966;SDS011;27656;53.068;8.818;2023-02-22T06:07:51;42.53;;;18.73;;
41966;SDS011;27656;53.068;8.818;2023-02-22T06:10:18;38.03;;;19.10;;
41966;SDS011;27656;53.068;8.818;2023-02-22T06:12:46;33.73;;;18.30;;
41966;SDS011;27656;53.068;8.818;2023-02-22T06:15:16;38.90;;;18.70;;
41966;SDS011;27656;53.068;8.818;2023-02-22T06:17:43;36.20;;;18.37;;
41966;SDS011;27656;53.068;8.818;2023-02-22T06:20:11;36.30;;;17.30;;
41966;SDS011;27656;53.068;8.818;2023-02-22T06:22:39;31.97;;;16.17;;
41966;SDS011;27656;53.068;8.818;2023-02-22T06:25:12;32.87;;;17.77;;
41966;SDS011;27656;53.068;8.818;2023-02-22T06:27:39;36.23;;;18.10;;
41966;SDS011;27656;53.068;8.818;2023-02-22T06:30:06;37.80;;;18.20;;
41966;SDS011;27656;53.068;8.818;2023-02-22T06:32:33;46.83;;;19.47;;
41966;SDS011;27656;53.068;8.818;2023-02-22T06:34:59;36.60;;;17.60;;
41966;SDS011;27656;53.068;8.818;2023-02-22T06:37:26;41.67;;;19.67;;
41966;SDS011;27656;53.068;8.818;2023-02-22T06:39:52;43.33;;;20.33;;
41966;SDS011;27656;53.068;8.818;2023-02-22T06:42:18;38.43;;;19.00;;
41966;SDS011;27656;53.068;8.818;2023-02-22T06:44:45;42.33;;;20.07;;
41966;SDS011;27656;53.068;8.818;2023-02-22T06:47:12;39.00;;;19.17;;
41966;SDS011;27656;53.068;8.818;2023-02-22T06:49:38;44.53;;;20.90;;
41966;SDS011;27656;53.068;8.818;2023-02-22T06:52:05;46.53;;;21.17;;
41966;SDS011;27656;53.068;8.818;2023-02-22T06:54:32;48.83;;;22.27;;
41966;SDS011;27656;53.068;8.818;2023-02-22T06:56:59;51.50;;;21.53;;
41966;SDS011;27656;53.068;8.818;2023-02-22T06:59:25;50.93;;;21.60;;
41966;SDS011;27656;53.068;8.818;2023-02-22T07:01:53;49.33;;;21.90;;
41966;SDS011;27656;53.068;8.818;2023-02-22T07:04:20;48.27;;;21.07;;
41966;SDS011;27656;53.068;8.818;2023-02-22T07:06:49;47.27;;;20.70;;
41966;SDS011;27656;53.068;8.818;2023-02-22T07:09:17;46.53;;;20.73;;
41966;SDS011;27656;53.068;8.818;2023-02-22T07:11:44;44.77;;;21.00;;
41966;SDS011;27656;53.068;8.818;2023-02-22T07:14:10;48.57;;;20.53;;
41966;SDS011;27656;53.068;8.818;2023-02-22T07:16:36;45.63;;;21.83;;
41966;SDS011;27656;53.068;8.818;2023-02-22T07:19:03;49.57;;;22.20;;
41966;SDS011;27656;53.068;8.818;2023-02-22T07:21:29;50.93;;;21.37;;
41966;SDS011;27656;53.068;8.818;2023-02-22T07:23:56;47.13;;;20.83;;
41966;SDS011;27656;53.068;8.818;2023-02-22T07:26:24;43.47;;;21.13;;
41966;SDS011;27656;53.068;8.818;2023-02-22T07:28:51;40.33;;;20.60;;
41966;SDS011;27656;53.068;8.818;2023-02-22T07:31:17;42.07;;;19.30;;
41966;SDS011;27656;53.068;8.818;2023-02-22T07:33:47;45.77;;;20.53;;
41966;SDS011;27656;53.068;8.818;2023-02-22T07:36:14;47.53;;;18.70;;
41966;SDS011;27656;53.068;8.818;2023-02-22T07:38:43;38.03;;;18.87;;
41966;SDS011;27656;53.068;8.818;2023-02-22T07:41:10;43.13;;;18.87;;
41966;SDS011;27656;53.068;8.818;2023-02-22T07:43:37;43.10;;;17.70;;
41966;SDS011;27656;53.068;8.818;2023-02-22T07:46:04;39.00;;;17.07;;
41966;SDS011;27656;53.068;8.818;2023-02-22T07:48:30;41.10;;;17.60;;
41966;SDS011;27656;53.068;8.818;2023-02-22T07:50:57;37.40;;;16.33;;
41966;SDS011;27656;53.068;8.818;2023-02-22T07:53:25;32.90;;;16.07;;
41966;SDS011;27656;53.068;8.818;2023-02-22T07:55:58;36.33;;;17.00;;
41966;SDS011;27656;53.068;8.818;2023-02-22T07:58:27;36.80;;;17.23;;
41966;SDS011;27656;53.068;8.818;2023-02-22T08:00:54;33.63;;;16.90;;
41966;SDS011;27656;53.068;8.818;2023-02-22T08:03:22;34.30;;;16.33;;
41966;SDS011;27656;53.068;8.818;2023-02-22T08:05:51;37.17;;;17.20;;
41966;SDS011;27656;53.068;8.818;2023-02-22T08:08:19;41.67;;;20.47;;
41966;SDS011;27656;53.068;8.818;2023-02-22T08:10:46;35.87;;;18.13;;
41966;SDS011;27656;53.068;8.818;2023-02-22T08:13:13;38.23;;;16.67;;
41966;SDS011;27656;53.068;8.818;2023-02-22T08:15:40;39.13;;;18.43;;
41966;SDS011;27656;53.068;8.818;2023-02-22T08:18:10;34.70;;;17.67;;
41966;SDS011;27656;53.068;8.818;2023-02-22T08:20:38;31.70;;;15.73;;
41966;SDS011;27656;53.068;8.818;2023-02-22T08:23:06;37.97;;;19.63;;
41966;SDS011;27656;53.068;8.818;2023-02-22T08:25:34;38.27;;;18.80;;
41966;SDS011;27656;53.068;8.818;2023-02-22T08:28:02;37.67;;;18.17;;
41966;SDS011;27656;53.068;8.818;2023-02-22T08:30:35;42.03;;;19.60;;
41966;SDS011;27656;53.068;8.818;2023-02-22T08:33:05;29.07;;;13.83;;
41966;SDS011;27656;53.068;8.818;2023-02-22T08:35:32;33.10;;;15.50;;
41966;SDS011;27656;53.068;8.818;2023-02-22T08:38:00;32.17;;;14.93;;
41966;SDS011;27656;53.068;8.818;2023-02-22T08:40:29;33.00;;;15.03;;
41966;SDS011;27656;53.068;8.818;2023-02-22T08:42:56;29.50;;;13.57;;
41966;SDS011;27656;53.068;8.818;2023-02-22T08:45:23;31.53;;;15.33;;
41966;SDS011;27656;53.068;8.818;2023-02-22T08:47:50;32.87;;;15.83;;
41966;SDS011;27656;53.068;8.818;2023-02-22T08:50:21;33.53;;;16.03;;
41966;SDS011;27656;53.068;8.818;2023-02-22T08:52:50;30.80;;;14.40;;
41966;SDS011;27656;53.068;8.818;2023-02-22T08:55:18;37.23;;;14.83;;
41966;SDS011;27656;53.068;8.818;2023-02-22T08:57:48;32.60;;;15.77;;
41966;SDS011;27656;53.068;8.818;2023-02-22T09:00:16;32.13;;;14.87;;
41966;SDS011;27656;53.068;8.818;2023-02-22T09:02:43;31.80;;;14.13;;
41966;SDS011;27656;53.068;8.818;2023-02-22T09:05:10;34.53;;;15.23;;
41966;SDS011;27656;53.068;8.818;2023-02-22T09:07:39;30.27;;;13.60;;
41966;SDS011;27656;53.068;8.818;2023-02-22T09:10:07;30.20;;;15.43;;
41966;SDS011;27656;53.068;8.818;2023-02-22T09:12:36;41.13;;;22.67;;
41966;SDS011;27656;53.068;8.818;2023-02-22T09:15:03;41.37;;;21.23;;
41966;SDS011;27656;53.068;8.818;2023-02-22T09:17:29;32.43;;;16.70;;
41966;SDS011;27656;53.068;8.818;2023-02-22T09:19:56;34.73;;;18.30;;
41966;SDS011;27656;53.068;8.818;2023-02-22T09:22:22;32.43;;;15.73;;
41966;SDS011;27656;53.068;8.818;2023-02-22T09:24:50;33.37;;;16.63;;
41966;SDS011;27656;53.068;8.818;2023-02-22T09:27:17;31.50;;;14.87;;
41966;SDS011;27656;53.068;8.818;2023-02-22T09:29:46;42.77;;;21.43;;
41966;SDS011;27656;53.068;8.818;2023-02-22T09:32:14;28.97;;;14.37;;
41966;SDS011;27656;53.068;8.818;2023-02-22T09:34:43;30.37;;;15.63;;
41966;SDS011;27656;53.068;8.818;2023-02-22T09:37:11;29.67;;;14.13;;
41966;SDS011;27656;53.068;8.818;2023-02-22T09:39:38;33.70;;;15.47;;
41966;SDS011;27656;53.068;8.818;2023-02-22T09:44:51;29.20;;;13.37;;
41966;SDS011;27656;53.068;8.818;2023-02-22T09:47:24;27.23;;;13.83;;
41966;SDS011;27656;53.068;8.818;2023-02-22T09:50:09;26.83;;;13.67;;
41966;SDS011;27656;53.068;8.818;2023-02-22T09:52:46;30.67;;;15.20;;
41966;SDS011;27656;53.068;8.818;2023-02-22T09:55:30;36.20;;;18.10;;
41966;SDS011;27656;53.068;8.818;2023-02-22T09:58:02;33.73;;;16.20;;
41966;SDS011;27656;53.068;8.818;2023-02-22T10:00:32;34.87;;;15.73;;
41966;SDS011;27656;53.068;8.818;2023-02-22T10:03:14;34.00;;;15.93;;
41966;SDS011;27656;53.068;8.818;2023-02-22T10:05:50;31.40;;;15.80;;
41966;SDS011;27656;53.068;8.818;2023-02-22T10:08:22;30.60;;;15.10;;
41966;SDS011;27656;53.068;8.818;2023-02-22T10:11:01;34.10;;;17.57;;
41966;SDS011;27656;53.068;8.818;2023-02-22T10:13:50;26.40;;;14.03;;
41966;SDS011;27656;53.068;8.818;2023-02-22T10:21:55;25.53;;;14.07;;
41966;SDS011;27656;53.068;8.818;2023-02-22T10:27:15;30.80;;;15.40;;
41966;SDS011;27656;53.068;8.818;2023-02-22T10:29:48;32.50;;;14.70;;
41966;SDS011;27656;53.068;8.818;2023-02-22T10:32:22;27.67;;;13.53;;
41966;SDS011;27656;53.068;8.818;2023-02-22T10:34:51;29.47;;;14.40;;
41966;SDS011;27656;53.068;8.818;2023-02-22T10:37:24;28.67;;;14.00;;
41966;SDS011;27656;53.068;8.818;2023-02-22T10:40:14;29.77;;;14.77;;
41966;SDS011;27656;53.068;8.818;2023-02-22T10:42:48;28.63;;;14.20;;
41966;SDS011;27656;53.068;8.818;2023-02-22T10:45:26;25.17;;;13.30;;
41966;SDS011;27656;53.068;8.818;2023-02-22T10:47:55;25.40;;;14.40;;
41966;SDS011;27656;53.068;8.818;2023-02-22T10:50:28;27.90;;;13.90;;
41966;SDS011;27656;53.068;8.818;2023-02-22T10:52:55;25.30;;;14.13;;
41966;SDS011;27656;53.068;8.818;2023-02-22T10:55:24;26.07;;;14.43;;
41966;SDS011;27656;53.068;8.818;2023-02-22T10:57:51;29.27;;;13.70;;
41966;SDS011;27656;53.068;8.818;2023-02-22T11:00:30;29.27;;;14.67;;
41966;SDS011;27656;53.068;8.818;2023-02-22T11:03:15;32.37;;;15.97;;
41966;SDS011;27656;53.068;8.818;2023-02-22T11:05:43;25.17;;;13.87;;
41966;SDS011;27656;53.068;8.818;2023-02-22T11:10:46;29.47;;;14.27;;
41966;SDS011;27656;53.068;8.818;2023-02-22T11:15:55;30.80;;;14.27;;
41966;SDS011;27656;53.068;8.818;2023-02-22T11:18:34;27.03;;;15.33;;
41966;SDS011;27656;53.068;8.818;2023-02-22T11:21:02;26.47;;;13.43;;
41966;SDS011;27656;53.068;8.818;2023-02-22T11:23:31;27.67;;;14.17;;
41966;SDS011;27656;53.068;8.818;2023-02-22T11:26:02;30.13;;;14.67;;
41966;SDS011;27656;53.068;8.818;2023-02-22T11:28:32;29.20;;;13.93;;
41966;SDS011;27656;53.068;8.818;2023-02-22T11:31:13;24.50;;;14.03;;
41966;SDS011;27656;53.068;8.818;2023-02-22T11:36:52;24.80;;;13.93;;
41966;SDS011;27656;53.068;8.818;2023-02-22T11:39:20;26.33;;;14.23;;
41966;SDS011;27656;53.068;8.818;2023-02-22T11:41:47;25.73;;;14.90;;
41966;SDS011;27656;53.068;8.818;2023-02-22T11:46:55;34.67;;;17.93;;
41966;SDS011;27656;53.068;8.818;2023-02-22T12:01:04;25.83;;;14.27;;
41966;SDS011;27656;53.068;8.818;2023-02-22T12:03:56;25.70;;;14.53;;
41966;SDS011;27656;53.068;8.818;2023-02-22T12:20:31;24.43;;;13.90;;
41966;SDS011;27656;53.068;8.818;2023-02-22T12:26:13;23.40;;;13.27;;
41966;SDS011;27656;53.068;8.818;2023-02-22T12:28:55;28.80;;;14.27;;
41966;SDS011;27656;53.068;8.818;2023-02-22T12:40:31;30.93;;;16.70;;
41966;SDS011;27656;53.068;8.818;2023-02-22T12:48:46;25.73;;;14.53;;
41966;SDS011;27656;53.068;8.818;2023-02-22T12:54:06;25.10;;;14.80;;
41966;SDS011;27656;53.068;8.818;2023-02-22T12:56:43;26.70;;;14.90;;
41966;SDS011;27656;53.068;8.818;2023-02-22T13:01:57;23.07;;;13.50;;
41966;SDS011;27656;53.068;8.818;2023-02-22T13:04:27;26.90;;;14.33;;
41966;SDS011;27656;53.068;8.818;2023-02-22T13:21:16;27.90;;;14.67;;
41966;SDS011;27656;53.068;8.818;2023-02-22T13:23:46;27.60;;;15.10;;
41966;SDS011;27656;53.068;8.818;2023-02-22T13:26:27;34.23;;;17.93;;
41966;SDS011;27656;53.068;8.818;2023-02-22T13:29:02;26.20;;;14.67;;
41966;SDS011;27656;53.068;8.818;2023-02-22T13:31:44;29.10;;;14.73;;
41966;SDS011;27656;53.068;8.818;2023-02-22T13:35:07;28.23;;;15.40;;
41966;SDS011;27656;53.068;8.818;2023-02-22T13:37:35;26.47;;;15.60;;
41966;SDS011;27656;53.068;8.818;2023-02-22T13:48:51;26.87;;;15.47;;
41966;SDS011;27656;53.068;8.818;2023-02-22T13:54:24;26.57;;;15.30;;
41966;SDS011;27656;53.068;8.818;2023-02-22T13:56:59;24.10;;;13.80;;
41966;SDS011;27656;53.068;8.818;2023-02-22T13:59:35;28.47;;;15.87;;
41966;SDS011;27656;53.068;8.818;2023-02-22T14:02:03;25.63;;;14.70;;
41966;SDS011;27656;53.068;8.818;2023-02-22T14:04:33;30.67;;;16.27;;
41966;SDS011;27656;53.068;8.818;2023-02-22T14:09:47;27.27;;;15.07;;
41966;SDS011;27656;53.068;8.818;2023-02-22T14:18:00;25.33;;;14.23;;
41966;SDS011;27656;53.068;8.818;2023-02-22T14:20:31;22.30;;;13.50;;
41966;SDS011;27656;53.068;8.818;2023-02-22T14:25:49;26.03;;;13.93;;
41966;SDS011;27656;53.068;8.818;2023-02-22T14:31:18;27.27;;;14.70;;
41966;SDS011;27656;53.068;8.818;2023-02-22T14:34:01;26.07;;;14.67;;
41966;SDS011;27656;53.068;8.818;2023-02-22T14:36:32;23.93;;;14.10;;
41966;SDS011;27656;53.068;8.818;2023-02-22T14:39:02;27.40;;;15.03;;
41966;SDS011;27656;53.068;8.818;2023-02-22T14:41:32;26.43;;;15.03;;
41966;SDS011;27656;53.068;8.818;2023-02-22T14:43:59;25.70;;;15.10;;
41966;SDS011;27656;53.068;8.818;2023-02-22T14:46:27;23.77;;;14.57;;
41966;SDS011;27656;53.068;8.818;2023-02-22T14:48:58;27.27;;;15.07;;
41966;SDS011;27656;53.068;8.818;2023-02-22T14:51:27;25.93;;;14.77;;
41966;SDS011;27656;53.068;8.818;2023-02-22T14:54:05;25.67;;;14.33;;
41966;SDS011;27656;53.068;8.818;2023-02-22T14:56:39;23.67;;;14.50;;
41966;SDS011;27656;53.068;8.818;2023-02-22T14:59:14;22.90;;;13.93;;
41966;SDS011;27656;53.068;8.818;2023-02-22T15:01:43;24.37;;;13.27;;
41966;SDS011;27656;53.068;8.818;2023-02-22T15:04:28;26.83;;;14.03;;
41966;SDS011;27656;53.068;8.818;2023-02-22T15:06:56;27.17;;;14.80;;
41966;SDS011;27656;53.068;8.818;2023-02-22T15:09:25;24.87;;;13.77;;
41966;SDS011;27656;53.068;8.818;2023-02-22T15:14:33;23.87;;;14.63;;
41966;SDS011;27656;53.068;8.818;2023-02-22T15:17:08;26.57;;;14.47;;
41966;SDS011;27656;53.068;8.818;2023-02-22T15:19:41;29.37;;;14.73;;
41966;SDS011;27656;53.068;8.818;2023-02-22T15:22:18;26.83;;;14.67;;
41966;SDS011;27656;53.068;8.818;2023-02-22T15:24:55;26.97;;;15.47;;
41966;SDS011;27656;53.068;8.818;2023-02-22T15:27:24;26.27;;;15.10;;
41966;SDS011;27656;53.068;8.818;2023-02-22T15:29:55;28.10;;;16.27;;
41966;SDS011;27656;53.068;8.818;2023-02-22T15:32:31;25.83;;;14.93;;
41966;SDS011;27656;53.068;8.818;2023-02-22T15:37:59;26.50;;;14.80;;
41966;SDS011;27656;53.068;8.818;2023-02-22T15:40:31;27.97;;;14.47;;
41966;SDS011;27656;53.068;8.818;2023-02-22T15:43:02;25.93;;;15.03;;
41966;SDS011;27656;53.068;8.818;2023-02-22T15:45:33;28.23;;;15.40;;
41966;SDS011;27656;53.068;8.818;2023-02-22T15:48:00;29.50;;;15.20;;
41966;SDS011;27656;53.068;8.818;2023-02-22T15:50:31;28.37;;;15.57;;
41966;SDS011;27656;53.068;8.818;2023-02-22T15:55:55;27.33;;;15.30;;
41966;SDS011;27656;53.068;8.818;2023-02-22T15:58:24;27.60;;;14.37;;
41966;SDS011;27656;53.068;8.818;2023-02-22T16:01:01;27.37;;;15.00;;
41966;SDS011;27656;53.068;8.818;2023-02-22T16:03:42;28.13;;;15.10;;
41966;SDS011;27656;53.068;8.818;2023-02-22T16:09:17;30.53;;;15.40;;
41966;SDS011;27656;53.068;8.818;2023-02-22T16:11:51;29.20;;;14.47;;
41966;SDS011;27656;53.068;8.818;2023-02-22T16:17:11;26.27;;;14.87;;
41966;SDS011;27656;53.068;8.818;2023-02-22T16:20:27;27.60;;;14.77;;
41966;SDS011;27656;53.068;8.818;2023-02-22T16:22:48;29.20;;;15.87;;
41966;SDS011;27656;53.068;8.818;2023-02-22T16:27:53;30.80;;;15.37;;
41966;SDS011;27656;53.068;8.818;2023-02-22T16:30:35;29.27;;;14.63;;
41966;SDS011;27656;53.068;8.818;2023-02-22T16:33:08;24.57;;;13.80;;
41966;SDS011;27656;53.068;8.818;2023-02-22T16:35:41;24.30;;;14.40;;
41966;SDS011;27656;53.068;8.818;2023-02-22T16:38:17;30.60;;;15.27;;
41966;SDS011;27656;53.068;8.818;2023-02-22T16:40:45;26.87;;;15.07;;
41966;SDS011;27656;53.068;8.818;2023-02-22T16:43:19;28.27;;;15.00;;
41966;SDS011;27656;53.068;8.818;2023-02-22T16:45:48;26.70;;;14.70;;
41966;SDS011;27656;53.068;8.818;2023-02-22T16:48:16;25.57;;;14.47;;
41966;SDS011;27656;53.068;8.818;2023-02-22T16:50:44;28.37;;;14.77;;
41966;SDS011;27656;53.068;8.818;2023-02-22T16:53:11;28.77;;;15.30;;
41966;SDS011;27656;53.068;8.818;2023-02-22T16:55:40;27.37;;;14.97;;
41966;SDS011;27656;53.068;8.818;2023-02-22T16:58:10;28.93;;;16.43;;
41966;SDS011;27656;53.068;8.818;2023-02-22T17:00:38;35.37;;;16.10;;
41966;SDS011;27656;53.068;8.818;2023-02-22T17:03:09;31.27;;;16.60;;
41966;SDS011;27656;53.068;8.818;2023-02-22T17:05:40;26.30;;;15.30;;
41966;SDS011;27656;53.068;8.818;2023-02-22T17:08:06;27.33;;;15.20;;
41966;SDS011;27656;53.068;8.818;2023-02-22T17:10:33;27.77;;;16.20;;
41966;SDS011;27656;53.068;8.818;2023-02-22T17:13:00;27.60;;;15.23;;
41966;SDS011;27656;53.068;8.818;2023-02-22T17:15:45;30.43;;;16.07;;